sensor_id;sensor_type;location;lat;lon;timestamp;P1;durP1;ratioP1;P2;durP2;ratioP2
21743;SDS011;11034;48.556;9.342;2023-09-08T00:00:52;6.13;;;4.70;;
21743;SDS011;11034;48.556;9.342;2023-09-08T00:03:21;6.45;;;4.82;;
21743;SDS011;11034;48.556;9.342;2023-09-08T00:05:49;9.30;;;4.75;;
21743;SDS011;11034;48.556;9.342;2023-09-08T00:08:19;8.98;;;5.63;;
21743;SDS011;11034;48.556;9.342;2023-09-08T00:10:48;7.45;;;5.53;;
21743;SDS011;11034;48.556;9.342;2023-09-08T00:13:16;7.10;;;5.82;;
21743;SDS011;11034;48.556;9.342;2023-09-08T00:15:44;8.20;;;5.63;;
21743;SDS011;11034;48.556;9.342;2023-09-08T00:18:12;7.55;;;5.28;;
21743;SDS011;11034;48.556;9.342;2023-09-08T00:20:40;8.07;;;5.40;;
21743;SDS011;11034;48.556;9.342;2023-09-08T00:23:09;6.32;;;5.22;;
21743;SDS011;11034;48.556;9.342;2023-09-08T00:25:38;8.38;;;5.45;;
21743;SDS011;11034;48.556;9.342;2023-09-08T00:28:07;6.50;;;5.45;;
21743;SDS011;11034;48.556;9.342;2023-09-08T00:30:37;8.65;;;5.85;;
21743;SDS011;11034;48.556;9.342;2023-09-08T00:33:05;6.60;;;5.18;;
21743;SDS011;11034;48.556;9.342;2023-09-08T00:35:35;6.90;;;5.28;;
21743;SDS011;11034;48.556;9.342;2023-09-08T00:38:03;7.15;;;5.40;;
21743;SDS011;11034;48.556;9.342;2023-09-08T00:40:31;7.65;;;5.72;;
21743;SDS011;11034;48.556;9.342;2023-09-08T00:43:01;8.35;;;6.07;;
21743;SDS011;11034;48.556;9.342;2023-09-08T00:45:29;7.05;;;5.93;;
21743;SDS011;11034;48.556;9.342;2023-09-08T00:47:58;9.07;;;5.85;;
21743;SDS011;11034;48.556;9.342;2023-09-08T00:50:26;7.72;;;5.78;;
21743;SDS011;11034;48.556;9.342;2023-09-08T00:52:54;8.65;;;5.43;;
21743;SDS011;11034;48.556;9.342;2023-09-08T00:55:22;9.05;;;5.50;;
21743;SDS011;11034;48.556;9.342;2023-09-08T00:57:51;8.73;;;6.10;;
21743;SDS011;11034;48.556;9.342;2023-09-08T01:00:21;6.80;;;5.22;;
21743;SDS011;11034;48.556;9.342;2023-09-08T01:02:49;8.93;;;5.80;;
21743;SDS011;11034;48.556;9.342;2023-09-08T01:05:17;9.23;;;6.05;;
21743;SDS011;11034;48.556;9.342;2023-09-08T01:07:46;8.43;;;5.90;;
21743;SDS011;11034;48.556;9.342;2023-09-08T01:10:15;7.40;;;5.70;;
21743;SDS011;11034;48.556;9.342;2023-09-08T01:12:44;9.65;;;5.97;;
21743;SDS011;11034;48.556;9.342;2023-09-08T01:15:12;7.32;;;5.60;;
21743;SDS011;11034;48.556;9.342;2023-09-08T01:17:42;7.78;;;5.38;;
21743;SDS011;11034;48.556;9.342;2023-09-08T01:20:15;10.13;;;6.15;;
21743;SDS011;11034;48.556;9.342;2023-09-08T01:25:43;8.93;;;5.78;;
21743;SDS011;11034;48.556;9.342;2023-09-08T01:28:16;11.85;;;6.55;;
21743;SDS011;11034;48.556;9.342;2023-09-08T01:30:45;7.55;;;5.68;;
21743;SDS011;11034;48.556;9.342;2023-09-08T01:33:14;8.85;;;6.47;;
21743;SDS011;11034;48.556;9.342;2023-09-08T01:35:42;8.13;;;6.28;;
21743;SDS011;11034;48.556;9.342;2023-09-08T01:38:11;7.80;;;6.45;;
21743;SDS011;11034;48.556;9.342;2023-09-08T01:40:39;7.03;;;6.13;;
21743;SDS011;11034;48.556;9.342;2023-09-08T01:43:08;8.93;;;6.07;;
21743;SDS011;11034;48.556;9.342;2023-09-08T01:45:36;9.25;;;5.82;;
21743;SDS011;11034;48.556;9.342;2023-09-08T01:48:05;8.75;;;6.15;;
21743;SDS011;11034;48.556;9.342;2023-09-08T01:50:33;8.05;;;5.97;;
21743;SDS011;11034;48.556;9.342;2023-09-08T01:53:02;6.65;;;5.78;;
21743;SDS011;11034;48.556;9.342;2023-09-08T01:55:30;11.68;;;6.22;;
21743;SDS011;11034;48.556;9.342;2023-09-08T01:57:58;9.85;;;5.93;;
21743;SDS011;11034;48.556;9.342;2023-09-08T02:00:28;7.57;;;5.82;;
21743;SDS011;11034;48.556;9.342;2023-09-08T02:02:56;8.25;;;5.57;;
21743;SDS011;11034;48.556;9.342;2023-09-08T02:05:24;8.38;;;5.68;;
21743;SDS011;11034;48.556;9.342;2023-09-08T02:07:53;7.63;;;6.18;;
21743;SDS011;11034;48.556;9.342;2023-09-08T02:10:22;7.38;;;5.65;;
21743;SDS011;11034;48.556;9.342;2023-09-08T02:12:50;7.03;;;5.95;;
21743;SDS011;11034;48.556;9.342;2023-09-08T02:15:19;8.30;;;6.03;;
21743;SDS011;11034;48.556;9.342;2023-09-08T02:17:50;12.13;;;6.22;;
21743;SDS011;11034;48.556;9.342;2023-09-08T02:20:20;9.20;;;6.10;;
21743;SDS011;11034;48.556;9.342;2023-09-08T02:22:49;8.32;;;5.90;;
21743;SDS011;11034;48.556;9.342;2023-09-08T02:25:22;9.88;;;5.90;;
21743;SDS011;11034;48.556;9.342;2023-09-08T02:27:50;8.18;;;5.55;;
21743;SDS011;11034;48.556;9.342;2023-09-08T02:30:19;7.80;;;5.65;;
21743;SDS011;11034;48.556;9.342;2023-09-08T02:32:47;10.05;;;5.63;;
21743;SDS011;11034;48.556;9.342;2023-09-08T02:35:16;7.40;;;6.10;;
21743;SDS011;11034;48.556;9.342;2023-09-08T02:37:45;7.53;;;5.88;;
21743;SDS011;11034;48.556;9.342;2023-09-08T02:40:13;9.13;;;6.07;;
21743;SDS011;11034;48.556;9.342;2023-09-08T02:42:41;7.75;;;5.50;;
21743;SDS011;11034;48.556;9.342;2023-09-08T02:45:09;8.05;;;5.55;;
21743;SDS011;11034;48.556;9.342;2023-09-08T02:47:37;9.63;;;6.57;;
21743;SDS011;11034;48.556;9.342;2023-09-08T02:50:06;8.35;;;6.45;;
21743;SDS011;11034;48.556;9.342;2023-09-08T02:52:36;10.70;;;6.97;;
21743;SDS011;11034;48.556;9.342;2023-09-08T02:55:04;9.88;;;7.13;;
21743;SDS011;11034;48.556;9.342;2023-09-08T02:57:33;8.05;;;6.45;;
21743;SDS011;11034;48.556;9.342;2023-09-08T03:00:01;8.73;;;6.22;;
21743;SDS011;11034;48.556;9.342;2023-09-08T03:02:29;7.93;;;6.43;;
21743;SDS011;11034;48.556;9.342;2023-09-08T03:04:58;10.13;;;6.88;;
21743;SDS011;11034;48.556;9.342;2023-09-08T03:07:26;10.40;;;7.28;;
21743;SDS011;11034;48.556;9.342;2023-09-08T03:09:56;11.40;;;6.93;;
21743;SDS011;11034;48.556;9.342;2023-09-08T03:12:24;10.43;;;6.78;;
21743;SDS011;11034;48.556;9.342;2023-09-08T03:14:52;8.82;;;6.28;;
21743;SDS011;11034;48.556;9.342;2023-09-08T03:17:21;8.82;;;5.53;;
21743;SDS011;11034;48.556;9.342;2023-09-08T03:19:49;7.68;;;6.18;;
21743;SDS011;11034;48.556;9.342;2023-09-08T03:22:17;8.65;;;5.80;;
21743;SDS011;11034;48.556;9.342;2023-09-08T03:24:46;9.27;;;5.80;;
21743;SDS011;11034;48.556;9.342;2023-09-08T03:27:15;8.23;;;6.25;;
21743;SDS011;11034;48.556;9.342;2023-09-08T03:29:43;8.98;;;6.13;;
21743;SDS011;11034;48.556;9.342;2023-09-08T03:32:11;7.43;;;6.00;;
21743;SDS011;11034;48.556;9.342;2023-09-08T03:34:39;8.75;;;5.50;;
21743;SDS011;11034;48.556;9.342;2023-09-08T03:37:08;8.30;;;6.10;;
21743;SDS011;11034;48.556;9.342;2023-09-08T03:39:36;7.40;;;6.43;;
21743;SDS011;11034;48.556;9.342;2023-09-08T03:42:04;7.50;;;6.18;;
21743;SDS011;11034;48.556;9.342;2023-09-08T03:44:33;8.45;;;6.57;;
21743;SDS011;11034;48.556;9.342;2023-09-08T03:47:01;8.23;;;6.47;;
21743;SDS011;11034;48.556;9.342;2023-09-08T03:49:30;7.88;;;6.00;;
21743;SDS011;11034;48.556;9.342;2023-09-08T03:51:58;7.63;;;6.03;;
21743;SDS011;11034;48.556;9.342;2023-09-08T03:54:26;8.88;;;6.13;;
21743;SDS011;11034;48.556;9.342;2023-09-08T03:56:54;9.55;;;6.40;;
21743;SDS011;11034;48.556;9.342;2023-09-08T03:59:22;11.13;;;6.15;;
21743;SDS011;11034;48.556;9.342;2023-09-08T04:01:51;8.13;;;5.95;;
21743;SDS011;11034;48.556;9.342;2023-09-08T04:04:19;7.25;;;6.22;;
21743;SDS011;11034;48.556;9.342;2023-09-08T04:06:48;9.30;;;6.55;;
21743;SDS011;11034;48.556;9.342;2023-09-08T04:09:16;8.18;;;6.25;;
21743;SDS011;11034;48.556;9.342;2023-09-08T04:11:44;12.07;;;6.38;;
21743;SDS011;11034;48.556;9.342;2023-09-08T04:14:12;7.57;;;6.07;;
21743;SDS011;11034;48.556;9.342;2023-09-08T04:16:40;10.15;;;6.50;;
21743;SDS011;11034;48.556;9.342;2023-09-08T04:19:10;7.85;;;5.65;;
21743;SDS011;11034;48.556;9.342;2023-09-08T04:21:38;9.57;;;6.22;;
21743;SDS011;11034;48.556;9.342;2023-09-08T04:24:08;8.77;;;5.63;;
21743;SDS011;11034;48.556;9.342;2023-09-08T04:26:37;7.18;;;5.80;;
21743;SDS011;11034;48.556;9.342;2023-09-08T04:29:05;10.05;;;6.07;;
21743;SDS011;11034;48.556;9.342;2023-09-08T04:31:33;10.43;;;6.13;;
21743;SDS011;11034;48.556;9.342;2023-09-08T04:34:01;9.25;;;6.32;;
21743;SDS011;11034;48.556;9.342;2023-09-08T04:36:31;7.53;;;5.82;;
21743;SDS011;11034;48.556;9.342;2023-09-08T04:38:59;8.85;;;6.38;;
21743;SDS011;11034;48.556;9.342;2023-09-08T04:41:27;8.98;;;6.70;;
21743;SDS011;11034;48.556;9.342;2023-09-08T04:43:55;12.27;;;7.45;;
21743;SDS011;11034;48.556;9.342;2023-09-08T04:46:24;12.30;;;7.40;;
21743;SDS011;11034;48.556;9.342;2023-09-08T04:48:52;10.25;;;7.82;;
21743;SDS011;11034;48.556;9.342;2023-09-08T04:51:20;10.57;;;7.47;;
21743;SDS011;11034;48.556;9.342;2023-09-08T04:53:50;8.77;;;7.20;;
21743;SDS011;11034;48.556;9.342;2023-09-08T04:56:18;12.30;;;7.03;;
21743;SDS011;11034;48.556;9.342;2023-09-08T04:58:46;9.80;;;6.38;;
21743;SDS011;11034;48.556;9.342;2023-09-08T05:01:14;9.77;;;6.93;;
21743;SDS011;11034;48.556;9.342;2023-09-08T05:04:14;10.57;;;6.50;;
21743;SDS011;11034;48.556;9.342;2023-09-08T05:06:42;7.20;;;6.00;;
21743;SDS011;11034;48.556;9.342;2023-09-08T05:09:11;11.30;;;6.65;;
21743;SDS011;11034;48.556;9.342;2023-09-08T05:11:40;9.13;;;6.95;;
21743;SDS011;11034;48.556;9.342;2023-09-08T05:14:08;8.90;;;7.18;;
21743;SDS011;11034;48.556;9.342;2023-09-08T05:16:36;10.63;;;7.60;;
21743;SDS011;11034;48.556;9.342;2023-09-08T05:19:11;9.32;;;7.47;;
21743;SDS011;11034;48.556;9.342;2023-09-08T05:21:40;13.02;;;7.88;;
21743;SDS011;11034;48.556;9.342;2023-09-08T05:24:09;10.02;;;7.82;;
21743;SDS011;11034;48.556;9.342;2023-09-08T05:26:39;9.77;;;7.65;;
21743;SDS011;11034;48.556;9.342;2023-09-08T05:29:08;10.63;;;7.70;;
21743;SDS011;11034;48.556;9.342;2023-09-08T05:31:36;11.13;;;7.57;;
21743;SDS011;11034;48.556;9.342;2023-09-08T05:34:04;10.52;;;7.15;;
21743;SDS011;11034;48.556;9.342;2023-09-08T05:36:33;9.80;;;7.47;;
21743;SDS011;11034;48.556;9.342;2023-09-08T05:39:03;10.52;;;6.93;;
21743;SDS011;11034;48.556;9.342;2023-09-08T05:41:33;7.50;;;6.38;;
21743;SDS011;11034;48.556;9.342;2023-09-08T05:44:01;8.93;;;7.10;;
21743;SDS011;11034;48.556;9.342;2023-09-08T05:46:30;10.05;;;6.78;;
21743;SDS011;11034;48.556;9.342;2023-09-08T05:48:59;10.32;;;6.90;;
21743;SDS011;11034;48.556;9.342;2023-09-08T05:51:27;12.18;;;6.88;;
21743;SDS011;11034;48.556;9.342;2023-09-08T05:53:55;9.13;;;7.22;;
21743;SDS011;11034;48.556;9.342;2023-09-08T05:56:24;13.48;;;6.88;;
21743;SDS011;11034;48.556;9.342;2023-09-08T05:58:55;8.32;;;6.78;;
21743;SDS011;11034;48.556;9.342;2023-09-08T06:01:23;9.85;;;7.00;;
21743;SDS011;11034;48.556;9.342;2023-09-08T06:03:54;8.40;;;7.13;;
21743;SDS011;11034;48.556;9.342;2023-09-08T06:06:23;9.48;;;7.05;;
21743;SDS011;11034;48.556;9.342;2023-09-08T06:08:51;10.23;;;7.28;;
21743;SDS011;11034;48.556;9.342;2023-09-08T06:11:20;10.27;;;7.00;;
21743;SDS011;11034;48.556;9.342;2023-09-08T06:13:48;10.27;;;7.10;;
21743;SDS011;11034;48.556;9.342;2023-09-08T06:16:18;12.50;;;10.05;;
21743;SDS011;11034;48.556;9.342;2023-09-08T06:18:46;20.38;;;15.57;;
21743;SDS011;11034;48.556;9.342;2023-09-08T06:21:14;16.08;;;12.48;;
21743;SDS011;11034;48.556;9.342;2023-09-08T06:23:42;21.80;;;13.30;;
21743;SDS011;11034;48.556;9.342;2023-09-08T06:26:10;15.38;;;11.07;;
21743;SDS011;11034;48.556;9.342;2023-09-08T06:28:39;13.63;;;7.72;;
21743;SDS011;11034;48.556;9.342;2023-09-08T06:31:09;10.40;;;7.93;;
21743;SDS011;11034;48.556;9.342;2023-09-08T06:33:39;12.05;;;7.50;;
21743;SDS011;11034;48.556;9.342;2023-09-08T06:36:08;9.10;;;6.53;;
21743;SDS011;11034;48.556;9.342;2023-09-08T06:38:36;9.20;;;7.28;;
21743;SDS011;11034;48.556;9.342;2023-09-08T06:41:08;9.30;;;7.40;;
21743;SDS011;11034;48.556;9.342;2023-09-08T06:43:37;11.05;;;6.47;;
21743;SDS011;11034;48.556;9.342;2023-09-08T06:46:05;7.50;;;6.00;;
21743;SDS011;11034;48.556;9.342;2023-09-08T06:48:33;6.47;;;5.78;;
21743;SDS011;11034;48.556;9.342;2023-09-08T06:51:03;7.78;;;5.93;;
21743;SDS011;11034;48.556;9.342;2023-09-08T06:53:31;8.60;;;5.63;;
21743;SDS011;11034;48.556;9.342;2023-09-08T06:55:59;7.60;;;5.47;;
21743;SDS011;11034;48.556;9.342;2023-09-08T06:58:27;6.07;;;5.47;;
21743;SDS011;11034;48.556;9.342;2023-09-08T07:00:56;6.38;;;5.28;;
21743;SDS011;11034;48.556;9.342;2023-09-08T07:03:24;6.35;;;5.45;;
21743;SDS011;11034;48.556;9.342;2023-09-08T07:05:53;9.82;;;5.90;;
21743;SDS011;11034;48.556;9.342;2023-09-08T07:08:24;9.38;;;5.80;;
21743;SDS011;11034;48.556;9.342;2023-09-08T07:10:52;11.35;;;5.85;;
21743;SDS011;11034;48.556;9.342;2023-09-08T07:13:21;6.68;;;5.93;;
21743;SDS011;11034;48.556;9.342;2023-09-08T07:15:49;6.80;;;5.78;;
21743;SDS011;11034;48.556;9.342;2023-09-08T07:18:17;8.60;;;6.10;;
21743;SDS011;11034;48.556;9.342;2023-09-08T07:20:46;7.63;;;6.25;;
21743;SDS011;11034;48.556;9.342;2023-09-08T07:23:16;9.60;;;6.35;;
21743;SDS011;11034;48.556;9.342;2023-09-08T07:25:48;7.60;;;6.25;;
21743;SDS011;11034;48.556;9.342;2023-09-08T07:28:17;8.75;;;5.75;;
21743;SDS011;11034;48.556;9.342;2023-09-08T07:30:49;7.80;;;5.78;;
21743;SDS011;11034;48.556;9.342;2023-09-08T07:33:17;7.13;;;5.20;;
21743;SDS011;11034;48.556;9.342;2023-09-08T07:35:45;6.40;;;5.35;;
21743;SDS011;11034;48.556;9.342;2023-09-08T07:38:14;7.30;;;5.78;;
21743;SDS011;11034;48.556;9.342;2023-09-08T07:40:42;8.43;;;5.32;;
21743;SDS011;11034;48.556;9.342;2023-09-08T07:43:11;7.95;;;6.22;;
21743;SDS011;11034;48.556;9.342;2023-09-08T07:45:39;8.95;;;5.93;;
21743;SDS011;11034;48.556;9.342;2023-09-08T07:48:07;9.63;;;6.22;;
21743;SDS011;11034;48.556;9.342;2023-09-08T07:50:36;7.50;;;5.95;;
21743;SDS011;11034;48.556;9.342;2023-09-08T07:53:04;7.53;;;5.95;;
21743;SDS011;11034;48.556;9.342;2023-09-08T07:55:32;6.55;;;5.55;;
21743;SDS011;11034;48.556;9.342;2023-09-08T07:58:00;9.90;;;6.45;;
21743;SDS011;11034;48.556;9.342;2023-09-08T08:00:31;6.45;;;5.70;;
21743;SDS011;11034;48.556;9.342;2023-09-08T08:02:59;10.20;;;6.60;;
21743;SDS011;11034;48.556;9.342;2023-09-08T08:05:27;7.80;;;6.07;;
21743;SDS011;11034;48.556;9.342;2023-09-08T08:07:55;6.95;;;5.80;;
21743;SDS011;11034;48.556;9.342;2023-09-08T08:10:25;9.10;;;6.90;;
21743;SDS011;11034;48.556;9.342;2023-09-08T08:12:53;8.57;;;6.50;;
21743;SDS011;11034;48.556;9.342;2023-09-08T08:15:23;10.00;;;6.47;;
21743;SDS011;11034;48.556;9.342;2023-09-08T08:18:05;10.20;;;6.72;;
21743;SDS011;11034;48.556;9.342;2023-09-08T08:20:37;7.38;;;6.00;;
21743;SDS011;11034;48.556;9.342;2023-09-08T08:23:06;10.73;;;6.78;;
21743;SDS011;11034;48.556;9.342;2023-09-08T08:25:34;9.48;;;6.57;;
21743;SDS011;11034;48.556;9.342;2023-09-08T08:28:03;10.10;;;6.20;;
21743;SDS011;11034;48.556;9.342;2023-09-08T08:30:31;9.77;;;6.60;;
21743;SDS011;11034;48.556;9.342;2023-09-08T08:33:01;14.25;;;6.53;;
21743;SDS011;11034;48.556;9.342;2023-09-08T08:35:30;7.95;;;6.25;;
21743;SDS011;11034;48.556;9.342;2023-09-08T08:37:58;7.78;;;6.05;;
21743;SDS011;11034;48.556;9.342;2023-09-08T08:40:27;11.07;;;6.25;;
21743;SDS011;11034;48.556;9.342;2023-09-08T08:42:55;11.75;;;5.88;;
21743;SDS011;11034;48.556;9.342;2023-09-08T08:45:28;7.63;;;5.85;;
21743;SDS011;11034;48.556;9.342;2023-09-08T08:47:57;7.65;;;5.85;;
21743;SDS011;11034;48.556;9.342;2023-09-08T08:50:28;7.60;;;6.15;;
21743;SDS011;11034;48.556;9.342;2023-09-08T08:52:59;8.15;;;6.28;;
21743;SDS011;11034;48.556;9.342;2023-09-08T08:55:29;7.60;;;5.70;;
21743;SDS011;11034;48.556;9.342;2023-09-08T08:57:59;10.98;;;6.03;;
21743;SDS011;11034;48.556;9.342;2023-09-08T09:00:30;9.30;;;5.70;;
21743;SDS011;11034;48.556;9.342;2023-09-08T09:03:04;11.73;;;5.70;;
21743;SDS011;11034;48.556;9.342;2023-09-08T09:05:43;7.68;;;5.60;;
21743;SDS011;11034;48.556;9.342;2023-09-08T09:08:14;10.60;;;6.35;;
21743;SDS011;11034;48.556;9.342;2023-09-08T09:10:44;8.40;;;5.88;;
21743;SDS011;11034;48.556;9.342;2023-09-08T09:13:12;7.40;;;5.68;;
21743;SDS011;11034;48.556;9.342;2023-09-08T09:15:41;8.55;;;5.85;;
21743;SDS011;11034;48.556;9.342;2023-09-08T09:18:11;8.48;;;5.70;;
21743;SDS011;11034;48.556;9.342;2023-09-08T09:20:40;7.65;;;5.75;;
21743;SDS011;11034;48.556;9.342;2023-09-08T09:23:10;8.23;;;5.57;;
21743;SDS011;11034;48.556;9.342;2023-09-08T09:25:40;9.38;;;6.10;;
21743;SDS011;11034;48.556;9.342;2023-09-08T09:28:10;11.00;;;6.22;;
21743;SDS011;11034;48.556;9.342;2023-09-08T09:30:47;10.85;;;7.07;;
21743;SDS011;11034;48.556;9.342;2023-09-08T09:33:17;11.45;;;6.40;;
21743;SDS011;11034;48.556;9.342;2023-09-08T09:35:47;10.60;;;6.18;;
21743;SDS011;11034;48.556;9.342;2023-09-08T09:38:19;9.10;;;6.20;;
21743;SDS011;11034;48.556;9.342;2023-09-08T09:40:48;10.52;;;6.45;;
21743;SDS011;11034;48.556;9.342;2023-09-08T09:43:19;8.30;;;6.15;;
21743;SDS011;11034;48.556;9.342;2023-09-08T09:45:49;9.57;;;6.43;;
21743;SDS011;11034;48.556;9.342;2023-09-08T09:48:17;8.77;;;5.75;;
21743;SDS011;11034;48.556;9.342;2023-09-08T09:50:49;7.45;;;5.80;;
21743;SDS011;11034;48.556;9.342;2023-09-08T09:53:19;9.85;;;6.10;;
21743;SDS011;11034;48.556;9.342;2023-09-08T09:55:48;7.88;;;5.90;;
21743;SDS011;11034;48.556;9.342;2023-09-08T09:58:16;10.13;;;6.45;;
21743;SDS011;11034;48.556;9.342;2023-09-08T10:00:48;8.63;;;5.70;;
21743;SDS011;11034;48.556;9.342;2023-09-08T10:03:18;9.73;;;6.72;;
21743;SDS011;11034;48.556;9.342;2023-09-08T10:05:47;6.97;;;6.18;;
21743;SDS011;11034;48.556;9.342;2023-09-08T10:08:16;10.40;;;6.45;;
21743;SDS011;11034;48.556;9.342;2023-09-08T10:10:46;7.88;;;6.00;;
21743;SDS011;11034;48.556;9.342;2023-09-08T10:13:18;6.78;;;5.97;;
21743;SDS011;11034;48.556;9.342;2023-09-08T10:15:51;9.98;;;6.18;;
21743;SDS011;11034;48.556;9.342;2023-09-08T10:18:24;8.02;;;5.45;;
21743;SDS011;11034;48.556;9.342;2023-09-08T10:20:54;11.45;;;5.78;;
21743;SDS011;11034;48.556;9.342;2023-09-08T10:23:38;8.68;;;5.95;;
21743;SDS011;11034;48.556;9.342;2023-09-08T10:26:10;10.45;;;6.22;;
21743;SDS011;11034;48.556;9.342;2023-09-08T10:28:41;6.93;;;6.00;;
21743;SDS011;11034;48.556;9.342;2023-09-08T10:31:11;7.32;;;5.97;;
21743;SDS011;11034;48.556;9.342;2023-09-08T10:33:41;7.82;;;5.72;;
21743;SDS011;11034;48.556;9.342;2023-09-08T10:36:10;7.85;;;5.72;;
21743;SDS011;11034;48.556;9.342;2023-09-08T10:38:39;8.18;;;6.05;;
21743;SDS011;11034;48.556;9.342;2023-09-08T10:41:28;7.50;;;5.97;;
21743;SDS011;11034;48.556;9.342;2023-09-08T10:44:01;10.50;;;5.80;;
21743;SDS011;11034;48.556;9.342;2023-09-08T10:46:31;8.32;;;6.38;;
21743;SDS011;11034;48.556;9.342;2023-09-08T10:49:01;9.27;;;6.22;;
21743;SDS011;11034;48.556;9.342;2023-09-08T10:51:30;6.03;;;5.43;;
21743;SDS011;11034;48.556;9.342;2023-09-08T10:54:01;8.02;;;6.50;;
21743;SDS011;11034;48.556;9.342;2023-09-08T10:56:47;6.55;;;5.82;;
21743;SDS011;11034;48.556;9.342;2023-09-08T10:59:21;7.43;;;6.32;;
21743;SDS011;11034;48.556;9.342;2023-09-08T11:01:53;7.90;;;6.32;;
21743;SDS011;11034;48.556;9.342;2023-09-08T11:04:22;8.43;;;5.97;;
21743;SDS011;11034;48.556;9.342;2023-09-08T11:06:52;8.20;;;6.35;;
21743;SDS011;11034;48.556;9.342;2023-09-08T11:09:23;9.38;;;6.13;;
21743;SDS011;11034;48.556;9.342;2023-09-08T11:11:53;10.13;;;6.22;;
21743;SDS011;11034;48.556;9.342;2023-09-08T11:14:21;9.20;;;5.78;;
21743;SDS011;11034;48.556;9.342;2023-09-08T11:16:49;9.50;;;6.28;;
21743;SDS011;11034;48.556;9.342;2023-09-08T11:19:17;9.68;;;6.22;;
21743;SDS011;11034;48.556;9.342;2023-09-08T11:21:46;6.30;;;5.63;;
21743;SDS011;11034;48.556;9.342;2023-09-08T11:24:16;8.35;;;6.15;;
21743;SDS011;11034;48.556;9.342;2023-09-08T11:26:45;6.40;;;5.80;;
21743;SDS011;11034;48.556;9.342;2023-09-08T11:29:17;7.72;;;5.85;;
21743;SDS011;11034;48.556;9.342;2023-09-08T11:31:51;8.02;;;6.20;;
21743;SDS011;11034;48.556;9.342;2023-09-08T11:34:20;10.55;;;6.30;;
21743;SDS011;11034;48.556;9.342;2023-09-08T11:36:48;7.03;;;6.32;;
21743;SDS011;11034;48.556;9.342;2023-09-08T11:39:16;6.88;;;5.45;;
21743;SDS011;11034;48.556;9.342;2023-09-08T11:41:44;8.27;;;6.15;;
21743;SDS011;11034;48.556;9.342;2023-09-08T11:44:14;9.80;;;5.82;;
21743;SDS011;11034;48.556;9.342;2023-09-08T11:46:44;10.07;;;6.35;;
21743;SDS011;11034;48.556;9.342;2023-09-08T11:49:18;8.32;;;6.03;;
21743;SDS011;11034;48.556;9.342;2023-09-08T11:51:46;8.18;;;6.13;;
21743;SDS011;11034;48.556;9.342;2023-09-08T11:54:14;9.80;;;5.97;;
21743;SDS011;11034;48.556;9.342;2023-09-08T11:56:43;9.52;;;6.63;;
21743;SDS011;11034;48.556;9.342;2023-09-08T11:59:12;6.70;;;6.00;;
21743;SDS011;11034;48.556;9.342;2023-09-08T12:01:41;7.15;;;5.90;;
21743;SDS011;11034;48.556;9.342;2023-09-08T12:04:17;10.60;;;6.43;;
21743;SDS011;11034;48.556;9.342;2023-09-08T12:06:47;6.70;;;6.10;;
21743;SDS011;11034;48.556;9.342;2023-09-08T12:09:19;6.57;;;5.70;;
21743;SDS011;11034;48.556;9.342;2023-09-08T12:11:48;6.18;;;5.53;;
21743;SDS011;11034;48.556;9.342;2023-09-08T12:14:16;10.70;;;6.47;;
21743;SDS011;11034;48.556;9.342;2023-09-08T12:16:44;9.13;;;5.60;;
21743;SDS011;11034;48.556;9.342;2023-09-08T12:22:03;8.20;;;5.95;;
21743;SDS011;11034;48.556;9.342;2023-09-08T12:24:46;7.43;;;5.60;;
21743;SDS011;11034;48.556;9.342;2023-09-08T12:27:15;9.85;;;5.70;;
21743;SDS011;11034;48.556;9.342;2023-09-08T12:29:57;5.95;;;5.35;;
21743;SDS011;11034;48.556;9.342;2023-09-08T12:32:28;9.68;;;6.35;;
21743;SDS011;11034;48.556;9.342;2023-09-08T12:35:02;7.80;;;5.72;;
21743;SDS011;11034;48.556;9.342;2023-09-08T12:37:32;7.20;;;5.60;;
21743;SDS011;11034;48.556;9.342;2023-09-08T12:40:01;5.90;;;5.30;;
21743;SDS011;11034;48.556;9.342;2023-09-08T12:42:30;7.53;;;5.32;;
21743;SDS011;11034;48.556;9.342;2023-09-08T12:45:03;8.52;;;5.95;;
21743;SDS011;11034;48.556;9.342;2023-09-08T12:47:32;7.60;;;5.45;;
21743;SDS011;11034;48.556;9.342;2023-09-08T12:50:03;6.93;;;6.10;;
21743;SDS011;11034;48.556;9.342;2023-09-08T12:52:32;7.20;;;5.57;;
21743;SDS011;11034;48.556;9.342;2023-09-08T12:55:00;10.38;;;5.88;;
21743;SDS011;11034;48.556;9.342;2023-09-08T12:57:28;7.72;;;6.03;;
21743;SDS011;11034;48.556;9.342;2023-09-08T12:59:57;7.80;;;6.00;;
21743;SDS011;11034;48.556;9.342;2023-09-08T13:02:25;9.27;;;5.95;;
21743;SDS011;11034;48.556;9.342;2023-09-08T13:04:54;7.20;;;5.60;;
21743;SDS011;11034;48.556;9.342;2023-09-08T13:07:24;6.43;;;5.13;;
21743;SDS011;11034;48.556;9.342;2023-09-08T13:09:53;7.93;;;5.88;;
21743;SDS011;11034;48.556;9.342;2023-09-08T13:12:21;6.32;;;5.35;;
21743;SDS011;11034;48.556;9.342;2023-09-08T13:14:49;8.88;;;5.80;;
21743;SDS011;11034;48.556;9.342;2023-09-08T13:17:17;6.05;;;5.45;;
21743;SDS011;11034;48.556;9.342;2023-09-08T13:19:46;7.55;;;5.70;;
21743;SDS011;11034;48.556;9.342;2023-09-08T13:22:15;9.48;;;5.70;;
21743;SDS011;11034;48.556;9.342;2023-09-08T13:24:44;8.15;;;5.45;;
21743;SDS011;11034;48.556;9.342;2023-09-08T13:27:12;8.57;;;5.60;;
21743;SDS011;11034;48.556;9.342;2023-09-08T13:29:41;7.80;;;5.47;;
21743;SDS011;11034;48.556;9.342;2023-09-08T13:32:09;8.55;;;5.85;;
21743;SDS011;11034;48.556;9.342;2023-09-08T13:34:38;7.20;;;5.85;;
21743;SDS011;11034;48.556;9.342;2023-09-08T13:37:06;6.93;;;6.10;;
21743;SDS011;11034;48.556;9.342;2023-09-08T13:39:34;6.93;;;5.63;;
21743;SDS011;11034;48.556;9.342;2023-09-08T13:42:04;8.60;;;5.63;;
21743;SDS011;11034;48.556;9.342;2023-09-08T13:44:32;8.32;;;5.80;;
21743;SDS011;11034;48.556;9.342;2023-09-08T13:47:01;8.25;;;5.70;;
21743;SDS011;11034;48.556;9.342;2023-09-08T13:49:29;8.13;;;5.45;;
21743;SDS011;11034;48.556;9.342;2023-09-08T13:51:58;11.73;;;5.82;;
21743;SDS011;11034;48.556;9.342;2023-09-08T13:54:30;7.30;;;5.70;;
21743;SDS011;11034;48.556;9.342;2023-09-08T13:57:00;7.03;;;5.60;;
21743;SDS011;11034;48.556;9.342;2023-09-08T13:59:35;7.25;;;5.68;;
21743;SDS011;11034;48.556;9.342;2023-09-08T14:02:08;7.60;;;5.72;;
21743;SDS011;11034;48.556;9.342;2023-09-08T14:04:56;7.68;;;5.93;;
21743;SDS011;11034;48.556;9.342;2023-09-08T14:07:29;9.23;;;5.85;;
21743;SDS011;11034;48.556;9.342;2023-09-08T14:10:00;7.63;;;5.10;;
21743;SDS011;11034;48.556;9.342;2023-09-08T14:12:36;7.88;;;5.63;;
21743;SDS011;11034;48.556;9.342;2023-09-08T14:15:06;7.68;;;5.15;;
21743;SDS011;11034;48.556;9.342;2023-09-08T14:17:35;6.50;;;5.35;;
21743;SDS011;11034;48.556;9.342;2023-09-08T14:20:03;6.53;;;5.22;;
21743;SDS011;11034;48.556;9.342;2023-09-08T14:22:32;7.20;;;5.80;;
21743;SDS011;11034;48.556;9.342;2023-09-08T14:25:00;6.22;;;5.28;;
21743;SDS011;11034;48.556;9.342;2023-09-08T14:27:28;9.38;;;5.50;;
21743;SDS011;11034;48.556;9.342;2023-09-08T14:29:56;7.00;;;5.50;;
21743;SDS011;11034;48.556;9.342;2023-09-08T14:32:25;8.35;;;5.55;;
21743;SDS011;11034;48.556;9.342;2023-09-08T14:34:54;10.15;;;5.60;;
21743;SDS011;11034;48.556;9.342;2023-09-08T14:37:22;6.25;;;5.40;;
21743;SDS011;11034;48.556;9.342;2023-09-08T14:39:50;10.23;;;5.30;;
21743;SDS011;11034;48.556;9.342;2023-09-08T14:42:18;6.70;;;5.13;;
21743;SDS011;11034;48.556;9.342;2023-09-08T14:44:46;11.90;;;5.45;;
21743;SDS011;11034;48.556;9.342;2023-09-08T14:47:17;7.63;;;5.32;;
21743;SDS011;11034;48.556;9.342;2023-09-08T14:49:47;5.80;;;5.13;;
21743;SDS011;11034;48.556;9.342;2023-09-08T14:52:16;7.20;;;5.32;;
21743;SDS011;11034;48.556;9.342;2023-09-08T14:54:46;7.13;;;5.43;;
21743;SDS011;11034;48.556;9.342;2023-09-08T14:57:14;6.20;;;5.60;;
21743;SDS011;11034;48.556;9.342;2023-09-08T14:59:43;9.48;;;5.75;;
21743;SDS011;11034;48.556;9.342;2023-09-08T15:02:11;7.03;;;5.70;;
21743;SDS011;11034;48.556;9.342;2023-09-08T15:04:39;7.55;;;5.43;;